createdAt,value
2019-01-23T00:01:21.276Z,17.40
2019-01-23T00:03:49.430Z,13.18
2019-01-23T00:06:17.190Z,18.87
2019-01-23T00:08:45.140Z,16.60
2019-01-23T00:11:13.437Z,17.75
2019-01-23T00:13:41.224Z,18.23
2019-01-23T00:16:08.961Z,18.23
2019-01-23T00:18:36.553Z,17.65
2019-01-23T00:21:04.610Z,18.75
2019-01-23T00:23:32.295Z,16.17
2019-01-23T00:26:00.324Z,17.25
2019-01-23T00:28:28.168Z,19.00
2019-01-23T00:30:55.861Z,17.02
2019-01-23T00:33:23.659Z,15.30
2019-01-23T00:35:51.221Z,17.95
2019-01-23T00:38:19.796Z,17.27
2019-01-23T00:40:47.678Z,18.00
2019-01-23T00:43:15.357Z,12.93
2019-01-23T00:45:43.148Z,16.27
2019-01-23T00:48:10.833Z,18.60
2019-01-23T00:50:38.513Z,20.68
2019-01-23T00:53:06.303Z,15.13
2019-01-23T00:55:34.339Z,16.55
2019-01-23T00:58:02.404Z,18.77
2019-01-23T01:00:30.274Z,18.57
2019-01-23T01:02:58.587Z,18.73
2019-01-23T01:05:26.501Z,17.17
2019-01-23T01:07:54.243Z,18.07
2019-01-23T01:10:22.236Z,17.52
2019-01-23T01:12:49.988Z,19.10
2019-01-23T01:15:17.785Z,18.23
2019-01-23T01:17:45.555Z,18.85
2019-01-23T01:20:14.186Z,17.17
2019-01-23T01:22:42.419Z,17.17
2019-01-23T01:25:13.021Z,17.95
2019-01-23T01:27:40.769Z,17.60
2019-01-23T01:30:13.639Z,16.23
2019-01-23T01:32:41.686Z,20.02
2019-01-23T01:35:09.928Z,19.52
2019-01-23T01:37:38.036Z,19.05
2019-01-23T01:40:12.354Z,19.77
2019-01-23T01:42:37.882Z,19.00
2019-01-23T01:45:06.711Z,20.08
2019-01-23T01:50:14.728Z,18.25
2019-01-23T01:52:42.839Z,18.30
2019-01-23T01:55:11.072Z,18.77
2019-01-23T01:57:38.861Z,19.23
2019-01-23T02:00:11.893Z,21.10
2019-01-23T02:02:40.484Z,19.55
2019-01-23T02:05:08.476Z,19.57
2019-01-23T02:07:36.268Z,20.05
2019-01-23T02:10:06.080Z,17.57
2019-01-23T02:12:33.850Z,19.40
2019-01-23T02:15:01.664Z,19.57
2019-01-23T02:17:29.802Z,20.40
2019-01-23T02:19:57.493Z,21.62
2019-01-23T02:22:25.288Z,19.20
2019-01-23T02:24:53.069Z,19.60
2019-01-23T02:27:21.010Z,19.77
2019-01-23T02:29:48.797Z,15.45
2019-01-23T02:32:16.481Z,15.60
2019-01-23T02:34:44.185Z,20.15
2019-01-23T02:37:11.959Z,21.10
2019-01-23T02:39:39.769Z,20.43
2019-01-23T02:42:07.810Z,20.48
2019-01-23T02:44:35.912Z,20.23
2019-01-23T02:47:03.712Z,20.88
2019-01-23T02:49:31.589Z,18.67
2019-01-23T02:51:59.477Z,19.10
2019-01-23T02:54:27.215Z,19.50
2019-01-23T02:56:55.145Z,21.00
2019-01-23T02:59:22.903Z,20.17
2019-01-23T03:01:50.716Z,21.55
2019-01-23T03:04:18.467Z,21.12
2019-01-23T03:06:46.154Z,19.52
2019-01-23T03:09:14.361Z,20.85
2019-01-23T03:11:42.428Z,20.95
2019-01-23T03:14:10.090Z,19.95
2019-01-23T03:16:37.925Z,21.80
2019-01-23T03:19:05.875Z,22.70
2019-01-23T03:21:33.466Z,20.88
2019-01-23T03:24:01.232Z,21.65
2019-01-23T03:26:29.065Z,21.65
2019-01-23T03:28:56.806Z,21.50
2019-01-23T03:31:24.606Z,21.82
2019-01-23T03:33:52.305Z,21.37
2019-01-23T03:36:20.086Z,22.00
2019-01-23T03:38:47.746Z,20.23
2019-01-23T03:41:15.816Z,21.95
2019-01-23T03:43:43.860Z,21.87
2019-01-23T03:46:11.670Z,19.92
2019-01-23T03:48:39.631Z,20.05
2019-01-23T03:51:07.389Z,19.80
2019-01-23T03:53:35.080Z,22.45
2019-01-23T03:56:02.875Z,22.45
2019-01-23T03:58:30.742Z,22.60
2019-01-23T04:00:58.498Z,22.22
2019-01-23T04:03:26.321Z,22.75
2019-01-23T04:05:54.252Z,21.50
2019-01-23T04:08:22.315Z,21.55
2019-01-23T04:10:50.075Z,21.02
2019-01-23T04:13:18.049Z,21.87
2019-01-23T04:15:45.917Z,22.15
2019-01-23T04:18:13.852Z,22.45
2019-01-23T04:20:41.792Z,23.15
2019-01-23T04:23:09.477Z,22.60
2019-01-23T04:25:37.247Z,21.93
2019-01-23T04:28:05.074Z,21.68
2019-01-23T04:30:32.744Z,21.85
2019-01-23T04:33:01.030Z,21.55
2019-01-23T04:35:28.802Z,22.13
2019-01-23T04:37:56.768Z,21.80
2019-01-23T04:40:24.560Z,20.75
2019-01-23T04:42:52.890Z,19.82
2019-01-23T04:45:20.688Z,21.87
2019-01-23T04:47:48.475Z,20.43
2019-01-23T04:50:16.772Z,20.68
2019-01-23T04:53:01.688Z,21.12
2019-01-23T04:55:29.531Z,20.60
2019-01-23T04:57:57.238Z,20.25
2019-01-23T05:00:26.118Z,20.15
2019-01-23T05:02:53.941Z,20.12
2019-01-23T05:05:21.734Z,19.37
2019-01-23T05:07:49.424Z,20.00
2019-01-23T05:10:17.244Z,22.58
2019-01-23T05:12:44.978Z,19.30
2019-01-23T05:15:12.988Z,19.77
2019-01-23T05:17:40.840Z,19.25
2019-01-23T05:20:09.609Z,19.75
2019-01-23T05:22:37.654Z,18.77
2019-01-23T05:25:05.703Z,20.65
2019-01-23T05:27:33.466Z,20.37
2019-01-23T05:30:01.062Z,19.98
2019-01-23T05:32:29.038Z,18.32
2019-01-23T05:34:57.139Z,18.57
2019-01-23T05:37:24.907Z,20.08
2019-01-23T05:39:52.590Z,19.67
2019-01-23T05:42:20.477Z,19.67
2019-01-23T05:44:48.218Z,21.52
2019-01-23T05:47:16.152Z,22.62
2019-01-23T05:49:44.256Z,24.40
2019-01-23T05:52:12.475Z,20.82
2019-01-23T05:54:40.528Z,22.85
2019-01-23T05:57:08.453Z,21.57
2019-01-23T05:59:36.578Z,22.37
2019-01-23T06:02:04.907Z,20.05
2019-01-23T06:04:32.727Z,20.65
2019-01-23T06:07:00.761Z,21.65
2019-01-23T06:09:29.644Z,20.62
2019-01-23T06:11:57.212Z,21.95
2019-01-23T06:14:25.020Z,20.68
2019-01-23T06:16:52.793Z,20.35
2019-01-23T06:19:20.403Z,20.80
2019-01-23T06:21:48.543Z,21.27
2019-01-23T06:24:16.484Z,19.67
2019-01-23T06:26:44.268Z,26.33
2019-01-23T06:29:11.951Z,20.43
2019-01-23T06:31:40.018Z,21.50
2019-01-23T06:34:07.743Z,20.90
2019-01-23T06:36:35.404Z,20.85
2019-01-23T06:39:06.779Z,22.15
2019-01-23T06:41:34.499Z,20.45
2019-01-23T06:44:02.285Z,26.07
2019-01-23T06:46:36.182Z,22.05
2019-01-23T06:49:04.000Z,21.50
2019-01-23T06:51:32.026Z,21.73
2019-01-23T06:53:59.825Z,21.95
2019-01-23T06:56:27.788Z,24.02
2019-01-23T06:58:55.877Z,24.95
2019-01-23T07:01:23.550Z,22.55
2019-01-23T07:03:51.187Z,24.60
2019-01-23T07:06:19.204Z,20.80
2019-01-23T07:08:48.332Z,21.23
2019-01-23T07:11:16.067Z,19.62
2019-01-23T07:13:43.852Z,19.73
2019-01-23T07:16:11.646Z,19.67
2019-01-23T07:18:39.738Z,20.72
2019-01-23T07:21:07.560Z,20.72
2019-01-23T07:23:35.586Z,24.18
2019-01-23T07:26:03.819Z,24.00
2019-01-23T07:28:31.951Z,24.98
2019-01-23T07:30:59.829Z,25.45
2019-01-23T07:33:27.914Z,23.32
2019-01-23T07:35:55.858Z,26.33
2019-01-23T07:38:23.647Z,28.80
2019-01-23T07:40:51.442Z,27.00
2019-01-23T07:43:19.277Z,26.45
2019-01-23T07:45:46.970Z,24.07
2019-01-23T07:48:14.645Z,26.67
2019-01-23T07:50:42.450Z,34.58
2019-01-23T07:53:10.221Z,32.10
2019-01-23T07:55:37.915Z,27.75
2019-01-23T07:58:05.983Z,27.00
2019-01-23T08:00:33.776Z,27.58
2019-01-23T08:03:01.568Z,25.88
2019-01-23T08:05:29.386Z,24.60
2019-01-23T08:07:57.320Z,25.20
2019-01-23T08:10:25.123Z,24.15
2019-01-23T08:12:53.637Z,25.35
2019-01-23T08:15:33.179Z,22.87
2019-01-23T08:18:00.857Z,22.87
2019-01-23T08:20:29.088Z,24.25
2019-01-23T08:22:57.261Z,26.87
2019-01-23T08:25:25.152Z,26.45
2019-01-23T08:27:53.191Z,29.12
2019-01-23T08:30:21.029Z,31.00
2019-01-23T08:32:48.889Z,32.23
2019-01-23T08:35:18.124Z,31.33
2019-01-23T08:37:46.173Z,30.25
2019-01-23T08:40:14.604Z,32.13
2019-01-23T08:42:42.852Z,32.50
2019-01-23T08:45:10.973Z,29.15
2019-01-23T08:47:38.622Z,32.13
2019-01-23T08:50:31.974Z,32.58
2019-01-23T08:52:59.726Z,30.45
2019-01-23T08:55:27.687Z,32.45
2019-01-23T08:57:55.439Z,31.30
2019-01-23T09:00:23.226Z,31.87
2019-01-23T09:02:51.515Z,28.65
2019-01-23T09:05:19.912Z,30.35
2019-01-23T09:07:47.945Z,30.88
2019-01-23T09:10:18.717Z,30.08
2019-01-23T09:12:46.477Z,27.00
2019-01-23T09:15:14.690Z,30.12
2019-01-23T09:17:43.165Z,29.52
2019-01-23T09:20:11.992Z,28.75
2019-01-23T09:22:39.748Z,27.70
2019-01-23T09:25:10.155Z,29.27
2019-01-23T09:27:37.824Z,27.93
2019-01-23T09:30:20.233Z,27.22
2019-01-23T09:33:57.869Z,25.95
2019-01-23T09:37:45.013Z,27.82
2019-01-23T09:40:40.851Z,22.25
2019-01-23T09:44:11.528Z,28.98
2019-01-23T09:47:24.585Z,28.23
2019-01-23T09:50:56.449Z,23.55
2019-01-23T09:53:33.437Z,20.05
2019-01-23T09:56:01.852Z,26.27
2019-01-23T09:58:29.881Z,28.67
2019-01-23T10:00:59.826Z,27.85
2019-01-23T10:03:27.235Z,30.17
2019-01-23T10:05:55.317Z,11.15
2019-01-23T10:08:23.121Z,29.40
2019-01-23T10:10:51.007Z,30.95
2019-01-23T10:13:18.906Z,23.27
2019-01-23T10:16:01.250Z,28.15
2019-01-23T10:18:29.313Z,24.87
2019-01-23T10:20:57.125Z,28.83
2019-01-23T10:23:25.404Z,14.28
2019-01-23T10:25:53.203Z,29.95
2019-01-23T10:28:21.344Z,28.52
2019-01-23T10:30:49.413Z,32.93
2019-01-23T10:33:17.529Z,28.35
2019-01-23T10:35:45.642Z,25.08
2019-01-23T10:38:13.525Z,31.30
2019-01-23T10:40:41.336Z,22.73
2019-01-23T10:43:09.641Z,26.87
2019-01-23T10:45:37.626Z,19.92
2019-01-23T10:48:05.787Z,15.78
2019-01-23T10:50:33.753Z,30.20
2019-01-23T10:53:01.519Z,28.05
2019-01-23T10:55:29.711Z,31.60
2019-01-23T10:57:57.758Z,26.80
2019-01-23T11:00:25.937Z,34.88
2019-01-23T11:02:53.800Z,32.93
2019-01-23T11:05:22.513Z,30.85
2019-01-23T11:07:50.368Z,30.97
2019-01-23T11:10:21.199Z,33.63
2019-01-23T11:12:49.706Z,30.55
2019-01-23T11:15:17.581Z,32.33
2019-01-23T11:17:45.385Z,29.82
2019-01-23T11:20:15.689Z,27.70
2019-01-23T11:22:43.593Z,28.50
2019-01-23T11:25:12.846Z,26.62
2019-01-23T11:27:40.949Z,14.80
2019-01-23T11:30:14.119Z,27.50
2019-01-23T11:32:41.953Z,24.40
2019-01-23T11:35:10.764Z,12.73
2019-01-23T11:37:38.932Z,24.72
2019-01-23T11:40:14.140Z,23.20
2019-01-23T11:42:42.295Z,27.07
2019-01-23T11:45:11.489Z,27.73
2019-01-23T11:47:39.315Z,26.68
2019-01-23T11:50:08.401Z,26.70
2019-01-23T11:52:36.241Z,27.30
2019-01-23T11:55:04.725Z,18.23
2019-01-23T11:57:32.545Z,19.62
2019-01-23T12:00:00.410Z,26.48
2019-01-23T12:02:30.925Z,25.60
2019-01-23T12:04:57.807Z,20.88
2019-01-23T12:07:25.613Z,25.92
2019-01-23T12:09:53.679Z,14.40
2019-01-23T12:12:21.494Z,22.13
2019-01-23T12:14:49.191Z,25.32
2019-01-23T12:17:17.015Z,23.35
2019-01-23T12:19:44.967Z,23.92
2019-01-23T12:22:12.807Z,27.15
2019-01-23T12:24:40.867Z,22.77
2019-01-23T12:27:08.974Z,24.15
2019-01-23T12:29:36.641Z,22.30
2019-01-23T12:32:04.534Z,18.65
2019-01-23T12:34:32.302Z,23.20
2019-01-23T12:37:00.291Z,22.70
2019-01-23T12:39:27.965Z,19.15
2019-01-23T12:41:55.858Z,13.98
2019-01-23T12:44:23.639Z,17.80
2019-01-23T12:46:51.420Z,12.47
2019-01-23T12:49:19.189Z,21.10
2019-01-23T12:51:46.991Z,15.70
2019-01-23T12:54:14.635Z,20.92
2019-01-23T12:56:42.716Z,20.43
2019-01-23T12:59:11.028Z,20.20
2019-01-23T13:01:42.212Z,20.88
2019-01-23T13:04:08.801Z,19.75
2019-01-23T13:06:38.328Z,18.82
2019-01-23T13:09:14.472Z,21.30
2019-01-23T13:11:42.691Z,18.40
2019-01-23T13:14:10.473Z,18.98
2019-01-23T13:16:38.318Z,18.57
2019-01-23T13:19:06.445Z,19.00
2019-01-23T13:21:34.540Z,19.73
2019-01-23T13:24:02.627Z,18.20
2019-01-23T13:26:30.742Z,20.32
2019-01-23T13:28:58.345Z,20.50
2019-01-23T13:31:26.452Z,19.90
2019-01-23T13:33:54.235Z,20.02
2019-01-23T13:36:22.090Z,19.75
2019-01-23T13:38:50.033Z,19.05
2019-01-23T13:41:18.122Z,18.48
2019-01-23T13:43:45.772Z,19.55
2019-01-23T13:46:13.465Z,19.12
2019-01-23T13:48:41.211Z,18.10
2019-01-23T13:51:09.567Z,20.43
2019-01-23T13:53:37.372Z,18.37
2019-01-23T13:56:05.262Z,19.27
2019-01-23T13:58:33.917Z,19.05
2019-01-23T14:01:01.862Z,17.37
2019-01-23T14:03:29.604Z,19.23
2019-01-23T14:05:58.788Z,19.00
2019-01-23T14:08:26.676Z,20.65
2019-01-23T14:10:54.437Z,19.98
2019-01-23T14:13:22.247Z,18.45
2019-01-23T14:15:50.022Z,19.45
2019-01-23T14:18:18.956Z,20.02
2019-01-23T14:20:46.988Z,19.17
2019-01-23T14:23:14.953Z,19.12
2019-01-23T14:25:42.613Z,20.85
2019-01-23T14:28:10.500Z,20.55
2019-01-23T14:30:41.911Z,20.32
2019-01-23T14:33:09.812Z,20.02
2019-01-23T14:35:40.356Z,21.25
2019-01-23T14:38:08.146Z,25.45
2019-01-23T14:40:35.905Z,33.05
2019-01-23T14:43:05.349Z,24.60
2019-01-23T14:45:33.052Z,25.48
2019-01-23T14:48:00.839Z,22.58
2019-01-23T14:50:28.655Z,26.73
2019-01-23T14:52:56.448Z,38.33
2019-01-23T14:55:24.233Z,27.62
2019-01-23T14:57:52.481Z,27.62
2019-01-23T15:00:25.437Z,27.17
2019-01-23T15:02:53.540Z,25.57
2019-01-23T15:05:21.299Z,27.80
2019-01-23T15:07:49.362Z,28.55
2019-01-23T15:10:24.072Z,31.40
2019-01-23T15:12:51.962Z,32.00
2019-01-23T15:15:19.938Z,27.95
2019-01-23T15:17:48.190Z,29.35
2019-01-23T15:20:28.616Z,28.62
2019-01-23T15:22:56.406Z,29.25
2019-01-23T15:25:24.408Z,28.20
2019-01-23T15:27:52.513Z,31.37
2019-01-23T15:30:20.763Z,30.50
2019-01-23T15:32:48.731Z,29.72
2019-01-23T15:35:16.900Z,31.82
2019-01-23T15:37:44.718Z,37.78
2019-01-23T15:40:17.056Z,34.53
2019-01-23T15:42:44.851Z,32.08
2019-01-23T15:45:13.480Z,30.00
2019-01-23T15:47:41.641Z,30.23
2019-01-23T15:50:13.579Z,28.92
2019-01-23T15:52:41.740Z,29.72
2019-01-23T15:55:12.354Z,31.93
2019-01-23T15:57:40.279Z,30.30
2019-01-23T16:00:14.158Z,30.85
2019-01-23T16:02:41.957Z,30.50
2019-01-23T16:05:09.965Z,32.25
2019-01-23T16:07:37.756Z,33.33
2019-01-23T16:10:06.627Z,30.90
2019-01-23T16:12:34.909Z,31.70
2019-01-23T16:15:03.422Z,30.50
2019-01-23T16:17:31.194Z,32.85
2019-01-23T16:19:59.030Z,32.63
2019-01-23T16:22:27.073Z,31.00
2019-01-23T16:24:55.124Z,30.82
2019-01-23T16:27:22.872Z,31.30
2019-01-23T16:29:51.182Z,33.92
2019-01-23T16:32:18.940Z,50.10
2019-01-23T16:34:46.674Z,33.33
2019-01-23T16:37:14.428Z,31.70
2019-01-23T16:39:42.409Z,33.67
2019-01-23T16:42:10.268Z,30.65
2019-01-23T16:44:38.340Z,32.35
2019-01-23T16:47:06.006Z,32.45
2019-01-23T16:49:33.973Z,33.00
2019-01-23T16:52:01.891Z,33.53
2019-01-23T16:54:29.750Z,31.90
2019-01-23T16:56:57.541Z,32.50
2019-01-23T16:59:25.351Z,31.50
2019-01-23T17:01:53.394Z,30.02
2019-01-23T17:04:21.399Z,30.70
2019-01-23T17:06:49.411Z,29.90
2019-01-23T17:09:17.205Z,31.95
2019-01-23T17:11:44.974Z,35.85
2019-01-23T17:14:13.033Z,37.60
2019-01-23T17:16:42.074Z,38.40
2019-01-23T17:19:10.972Z,35.35
2019-01-23T17:21:38.668Z,50.55
2019-01-23T17:24:06.462Z,43.05
2019-01-23T17:26:34.358Z,40.55
2019-01-23T17:29:02.371Z,37.80
2019-01-23T17:31:30.049Z,31.07
2019-01-23T17:33:57.778Z,33.38
2019-01-23T17:36:25.545Z,32.42
2019-01-23T17:38:53.491Z,38.05
2019-01-23T17:41:21.511Z,36.48
2019-01-23T17:43:49.428Z,42.33
2019-01-23T17:46:17.195Z,50.85
2019-01-23T17:48:45.381Z,41.00
2019-01-23T17:51:13.073Z,34.83
2019-01-23T17:53:40.868Z,35.05
2019-01-23T17:56:08.644Z,33.13
2019-01-23T17:58:36.427Z,35.60
2019-01-23T18:01:04.973Z,33.88
2019-01-23T18:03:32.673Z,34.48
2019-01-23T18:06:00.517Z,34.10
2019-01-23T18:08:28.290Z,35.15
2019-01-23T18:10:56.093Z,34.90
2019-01-23T18:13:23.760Z,36.23
2019-01-23T18:15:52.485Z,34.70
2019-01-23T18:18:20.776Z,35.28
2019-01-23T18:20:48.919Z,37.85
2019-01-23T18:23:16.688Z,37.10
2019-01-23T18:25:44.516Z,34.08
2019-01-23T18:28:12.263Z,35.08
2019-01-23T18:30:55.565Z,34.63
2019-01-23T18:33:35.327Z,35.68
2019-01-23T18:36:47.712Z,35.58
2019-01-23T18:40:21.176Z,37.42
2019-01-23T18:43:51.491Z,34.08
2019-01-23T18:47:03.050Z,34.30
2019-01-23T18:50:46.337Z,33.67
2019-01-23T18:53:14.101Z,35.13
2019-01-23T18:55:41.901Z,35.83
2019-01-23T18:58:10.248Z,36.93
2019-01-23T19:00:38.078Z,36.40
2019-01-23T19:03:07.193Z,36.50
2019-01-23T19:05:35.354Z,38.10
2019-01-23T19:08:04.585Z,37.50
2019-01-23T19:10:32.554Z,37.40
2019-01-23T19:13:00.396Z,36.10
2019-01-23T19:15:31.206Z,36.90
2019-01-23T19:18:01.711Z,37.65
2019-01-23T19:20:29.568Z,37.48
2019-01-23T19:22:57.376Z,38.50
2019-01-23T19:25:25.522Z,36.88
2019-01-23T19:27:53.381Z,39.45
2019-01-23T19:30:21.643Z,51.18
2019-01-23T19:32:50.013Z,43.87
2019-01-23T19:35:18.192Z,37.08
2019-01-23T19:37:52.311Z,37.03
2019-01-23T19:40:20.213Z,36.42
2019-01-23T19:42:48.087Z,35.78
2019-01-23T19:45:20.822Z,36.40
2019-01-23T19:47:52.088Z,35.92
2019-01-23T19:50:20.045Z,36.15
2019-01-23T19:52:48.277Z,37.05
2019-01-23T19:55:17.148Z,35.48
2019-01-23T19:57:46.513Z,37.15
2019-01-23T20:00:24.290Z,34.43
2019-01-23T20:02:55.172Z,35.85
2019-01-23T20:05:26.484Z,35.13
2019-01-23T20:07:54.828Z,36.70
2019-01-23T20:10:23.488Z,35.05
2019-01-23T20:12:54.234Z,35.38
2019-01-23T20:15:23.034Z,33.90
2019-01-23T20:17:54.695Z,38.85
2019-01-23T20:20:22.838Z,35.45
2019-01-23T20:22:50.583Z,34.10
2019-01-23T20:25:22.929Z,41.30
2019-01-23T20:27:51.421Z,42.43
2019-01-23T20:30:35.194Z,41.35
2019-01-23T20:33:03.513Z,39.65
2019-01-23T20:35:31.418Z,40.33
2019-01-23T20:37:59.785Z,39.53
2019-01-23T20:40:27.600Z,42.85
2019-01-23T20:42:55.704Z,42.38
2019-01-23T20:45:24.283Z,43.00
2019-01-23T20:47:51.965Z,42.50
2019-01-23T20:50:22.995Z,43.98
2019-01-23T20:52:51.057Z,44.13
2019-01-23T20:55:18.886Z,45.48
2019-01-23T20:57:50.877Z,49.05
2019-01-23T21:00:21.900Z,52.95
2019-01-23T21:02:50.041Z,51.08
2019-01-23T21:05:18.202Z,46.20
2019-01-23T21:07:46.752Z,41.63
2019-01-23T21:10:15.664Z,40.40
2019-01-23T21:12:43.581Z,39.13
2019-01-23T21:15:15.979Z,35.40
2019-01-23T21:17:43.811Z,36.77
2019-01-23T21:20:15.182Z,36.68
2019-01-23T21:22:43.369Z,37.73
2019-01-23T21:25:11.766Z,35.13
2019-01-23T21:27:39.557Z,35.73
2019-01-23T21:30:15.335Z,36.38
2019-01-23T21:32:43.169Z,36.13
2019-01-23T21:35:11.088Z,35.28
2019-01-23T21:37:39.048Z,35.58
2019-01-23T21:40:12.765Z,33.75
2019-01-23T21:42:40.796Z,34.88
2019-01-23T21:45:10.172Z,33.60
2019-01-23T21:47:37.995Z,33.42
2019-01-23T21:50:09.095Z,36.58
2019-01-23T21:52:36.687Z,35.70
2019-01-23T21:55:06.448Z,35.50
2019-01-23T21:57:34.749Z,34.98
2019-01-23T22:00:03.077Z,35.43
2019-01-23T22:02:31.156Z,37.85
2019-01-23T22:04:59.184Z,35.63
2019-01-23T22:07:26.999Z,37.83
2019-01-23T22:09:54.909Z,44.33
2019-01-23T22:12:22.971Z,47.70
2019-01-23T22:14:50.700Z,48.35
2019-01-23T22:17:18.896Z,50.70
2019-01-23T22:19:46.832Z,52.60
2019-01-23T22:22:14.502Z,53.35
2019-01-23T22:24:42.249Z,50.98
2019-01-23T22:27:10.083Z,54.25
2019-01-23T22:29:38.025Z,57.48
2019-01-23T22:32:05.734Z,52.75
2019-01-23T22:34:33.388Z,57.50
2019-01-23T22:37:01.191Z,62.10
2019-01-23T22:39:28.746Z,60.12
2019-01-23T22:41:56.536Z,51.90
2019-01-23T22:44:24.560Z,57.08
2019-01-23T22:46:52.344Z,53.08
2019-01-23T22:49:20.094Z,51.77
2019-01-23T22:51:48.190Z,53.83
2019-01-23T22:54:15.757Z,54.20
2019-01-23T22:56:44.164Z,51.50
2019-01-23T22:59:11.776Z,53.63
2019-01-23T23:01:39.532Z,52.35
2019-01-23T23:04:07.331Z,56.10
2019-01-23T23:06:35.406Z,51.18
2019-01-23T23:09:08.949Z,50.33
2019-01-23T23:11:37.101Z,51.05
2019-01-23T23:14:05.589Z,53.85
2019-01-23T23:16:33.633Z,49.27
2019-01-23T23:19:01.443Z,51.08
2019-01-23T23:21:29.224Z,51.45
2019-01-23T23:23:56.709Z,50.25
2019-01-23T23:26:24.488Z,54.05
2019-01-23T23:28:52.302Z,53.83
2019-01-23T23:31:20.096Z,49.95
2019-01-23T23:33:47.823Z,49.33
2019-01-23T23:36:15.883Z,51.08
2019-01-23T23:38:43.610Z,49.83
2019-01-23T23:41:11.636Z,49.00
2019-01-23T23:43:39.316Z,49.90
2019-01-23T23:46:07.186Z,49.88
2019-01-23T23:48:35.157Z,49.18
2019-01-23T23:51:03.309Z,53.00
2019-01-23T23:53:31.393Z,49.48
2019-01-23T23:55:59.352Z,50.25
2019-01-23T23:58:26.959Z,50.33
